createdAt,value
2022-09-27T00:01:03.891Z,99622.06
2022-09-27T00:03:32.980Z,99615.31
2022-09-27T00:06:07.563Z,99579.53
2022-09-27T00:08:37.355Z,99623.97
2022-09-27T00:11:10.109Z,99607.28
2022-09-27T00:13:38.402Z,99627.41
2022-09-27T00:16:06.861Z,99632.16
2022-09-27T00:18:35.784Z,99621.19
2022-09-27T00:21:09.673Z,99627.53
2022-09-27T00:23:38.971Z,99624.66
2022-09-27T00:26:12.954Z,99628.94
2022-09-27T00:28:41.301Z,99631.75
2022-09-27T00:31:21.345Z,99633.31
2022-09-27T00:33:50.766Z,99630.47
2022-09-27T00:36:20.517Z,99632.75
2022-09-27T00:38:49.563Z,99633.84
2022-09-27T00:41:23.145Z,99657.13
2022-09-27T00:43:55.131Z,99530.16
2022-09-27T00:46:31.119Z,99638.50
2022-09-27T00:49:08.309Z,99647.00
2022-09-27T00:51:38.998Z,99668.88
2022-09-27T00:54:09.173Z,99662.53
2022-09-27T00:56:39.101Z,99651.81
2022-09-27T00:59:14.361Z,99652.78
2022-09-27T01:01:43.213Z,99653.16
2022-09-27T01:04:14.667Z,99655.44
2022-09-27T01:06:42.885Z,99655.28
2022-09-27T01:09:13.178Z,99655.41
2022-09-27T01:11:47.486Z,99659.50
2022-09-27T01:14:38.808Z,99657.09
2022-09-27T01:17:25.647Z,99651.53
2022-09-27T01:20:36.458Z,99659.50
2022-09-27T01:23:48.274Z,99655.81
2022-09-27T01:26:33.196Z,99654.47
2022-09-27T01:29:11.464Z,99616.84
2022-09-27T01:31:50.718Z,99661.44
2022-09-27T01:34:27.860Z,99648.06
2022-09-27T01:37:03.052Z,99638.50
2022-09-27T01:39:41.284Z,99647.75
2022-09-27T01:42:34.843Z,99644.13
2022-09-27T01:45:10.662Z,99647.06
2022-09-27T01:47:55.080Z,99661.50
2022-09-27T01:50:47.109Z,99650.03
2022-09-27T01:53:22.074Z,99645.81
2022-09-27T01:56:13.059Z,99648.41
2022-09-27T01:58:57.409Z,99648.78
2022-09-27T02:01:30.395Z,99665.25
2022-09-27T02:04:02.696Z,99632.75
2022-09-27T02:06:59.423Z,99635.28
2022-09-27T02:09:37.943Z,99626.28
2022-09-27T02:12:28.452Z,99633.88
2022-09-27T02:15:01.990Z,99650.06
2022-09-27T02:17:43.019Z,99658.75
2022-09-27T02:20:19.847Z,99655.53
2022-09-27T02:23:04.587Z,99653.56
2022-09-27T02:25:41.816Z,99664.25
2022-09-27T02:28:21.810Z,99654.63
2022-09-27T02:30:50.609Z,99642.38
2022-09-27T02:33:31.696Z,99627.91
2022-09-27T02:36:03.480Z,99635.84
2022-09-27T02:38:32.025Z,99642.88
2022-09-27T02:41:01.809Z,99638.38
2022-09-27T02:43:33.246Z,99620.69
2022-09-27T02:46:34.929Z,99650.94
2022-09-27T02:49:21.421Z,99649.00
2022-09-27T02:52:19.167Z,99641.78
2022-09-27T02:54:59.955Z,99650.63
2022-09-27T02:58:04.336Z,99631.94
2022-09-27T03:01:03.286Z,99645.91
2022-09-27T03:03:57.201Z,99640.66
2022-09-27T03:06:26.347Z,99643.75
2022-09-27T03:08:56.875Z,99651.97
2022-09-27T03:11:25.740Z,99642.03
2022-09-27T03:14:08.267Z,99650.81
2022-09-27T03:16:41.962Z,99656.00
2022-09-27T03:19:32.906Z,99646.25
2022-09-27T03:22:21.687Z,99647.28
2022-09-27T03:24:51.502Z,99658.94
2022-09-27T03:27:19.823Z,99648.31
2022-09-27T03:29:47.999Z,99647.50
2022-09-27T03:32:17.627Z,99547.22
2022-09-27T03:35:09.211Z,99646.00
2022-09-27T03:37:37.915Z,99648.53
2022-09-27T03:40:09.365Z,99654.34
2022-09-27T03:42:37.762Z,99656.50
2022-09-27T03:45:07.647Z,99658.38
2022-09-27T03:47:35.978Z,99658.94
2022-09-27T03:50:04.368Z,99648.03
2022-09-27T03:52:32.583Z,99673.97
2022-09-27T03:55:02.398Z,99674.59
2022-09-27T03:57:33.026Z,99674.25
2022-09-27T04:00:01.715Z,99657.50
2022-09-27T04:02:42.168Z,99653.19
2022-09-27T04:05:26.106Z,99644.13
2022-09-27T04:08:06.264Z,99649.09
2022-09-27T04:10:36.797Z,99654.50
2022-09-27T04:13:07.710Z,99659.31
2022-09-27T04:15:42.312Z,99669.53
2022-09-27T04:18:25.827Z,99657.50
2022-09-27T04:21:09.700Z,99663.81
2022-09-27T04:23:43.246Z,99669.88
2022-09-27T04:26:15.455Z,99653.19
2022-09-27T04:28:54.686Z,99652.53
2022-09-27T04:31:23.261Z,99657.56
2022-09-27T04:34:09.934Z,99655.56
2022-09-27T04:36:38.058Z,99660.91
2022-09-27T04:39:12.101Z,99674.38
2022-09-27T04:41:45.488Z,99673.50
2022-09-27T04:44:15.847Z,99687.53
2022-09-27T04:46:48.089Z,99667.81
2022-09-27T04:49:17.785Z,99654.78
2022-09-27T04:51:46.905Z,99651.72
2022-09-27T04:54:16.132Z,99654.63
2022-09-27T04:56:56.383Z,99651.69
2022-09-27T04:59:26.054Z,99646.34
2022-09-27T05:01:54.303Z,99647.91
2022-09-27T05:04:43.025Z,99646.81
2022-09-27T05:07:12.438Z,99650.78
2022-09-27T05:09:46.843Z,99647.03
2022-09-27T05:12:15.092Z,99638.78
2022-09-27T05:14:56.614Z,99640.97
2022-09-27T05:17:45.548Z,99648.50
2022-09-27T05:20:20.042Z,99646.53
2022-09-27T05:23:04.694Z,99639.25
2022-09-27T05:25:34.139Z,99641.63
2022-09-27T05:28:02.905Z,99570.91
2022-09-27T05:30:33.138Z,99646.88
2022-09-27T05:33:13.439Z,99651.28
2022-09-27T05:35:54.407Z,99644.88
2022-09-27T05:38:26.257Z,99655.44
2022-09-27T05:40:58.022Z,99654.47
2022-09-27T05:43:28.325Z,99654.91
2022-09-27T05:46:00.777Z,99655.50
2022-09-27T05:48:30.263Z,99663.94
2022-09-27T05:51:06.248Z,99658.63
2022-09-27T05:53:37.830Z,99661.34
2022-09-27T05:56:09.290Z,99662.97
2022-09-27T05:58:58.557Z,99665.69
2022-09-27T06:01:31.158Z,99661.88
2022-09-27T06:04:17.935Z,99656.19
2022-09-27T06:07:15.047Z,99631.97
2022-09-27T06:09:44.288Z,99664.38
2022-09-27T06:12:13.085Z,99659.50
2022-09-27T06:14:41.470Z,99661.69
2022-09-27T06:17:16.366Z,99655.50
2022-09-27T06:19:47.688Z,99660.81
2022-09-27T06:22:16.737Z,99664.13
2022-09-27T06:24:56.469Z,99651.22
2022-09-27T06:27:27.776Z,99657.13
2022-09-27T06:30:00.954Z,99659.84
2022-09-27T06:32:42.969Z,99653.53
2022-09-27T06:35:31.134Z,99661.56
2022-09-27T06:37:59.601Z,99664.06
2022-09-27T06:40:28.208Z,99662.06
2022-09-27T06:43:19.770Z,99660.00
2022-09-27T06:46:07.172Z,99654.44
2022-09-27T06:48:56.579Z,99659.53
2022-09-27T06:51:24.759Z,99670.78
2022-09-27T06:53:53.198Z,99672.78
2022-09-27T06:56:21.936Z,99669.03
2022-09-27T06:59:24.434Z,99672.75
2022-09-27T07:02:11.761Z,99687.19
2022-09-27T07:05:03.576Z,99688.78
2022-09-27T07:07:44.093Z,99700.22
2022-09-27T07:10:13.229Z,99701.28
2022-09-27T07:12:41.581Z,99697.84
2022-09-27T07:15:12.622Z,99693.38
2022-09-27T07:17:41.058Z,99684.53
2022-09-27T07:20:11.731Z,99691.19
2022-09-27T07:22:42.967Z,99681.69
2022-09-27T07:25:12.028Z,99680.28
2022-09-27T07:27:42.013Z,99682.72
2022-09-27T07:30:13.185Z,99677.41
2022-09-27T07:32:42.339Z,99683.03
2022-09-27T07:35:15.538Z,99688.88
2022-09-27T07:37:45.427Z,99621.03
2022-09-27T07:40:15.167Z,99683.94
2022-09-27T07:42:43.959Z,99690.88
2022-09-27T07:45:13.109Z,99707.38
2022-09-27T07:48:01.573Z,99711.69
2022-09-27T07:50:49.680Z,99719.16
2022-09-27T07:53:41.129Z,99726.91
2022-09-27T07:56:27.921Z,99720.66
2022-09-27T07:58:57.343Z,99713.53
2022-09-27T08:01:25.893Z,99714.28
2022-09-27T08:03:54.240Z,99715.25
2022-09-27T08:06:25.156Z,99733.47
2022-09-27T08:08:54.855Z,99733.34
2022-09-27T08:11:23.133Z,99714.34
2022-09-27T08:13:53.048Z,99754.63
2022-09-27T08:16:25.643Z,99751.00
2022-09-27T08:19:15.073Z,99748.41
2022-09-27T08:22:03.913Z,99728.31
2022-09-27T08:24:55.020Z,99767.97
2022-09-27T08:27:41.344Z,99759.41
2022-09-27T08:30:21.352Z,99762.81
2022-09-27T08:32:49.599Z,99757.56
2022-09-27T08:35:17.824Z,99760.84
2022-09-27T08:37:55.398Z,99720.84
2022-09-27T08:40:27.726Z,99747.56
2022-09-27T08:43:07.215Z,99757.44
2022-09-27T08:45:42.883Z,99749.09
2022-09-27T08:48:12.561Z,99748.16
2022-09-27T08:50:45.940Z,99720.94
2022-09-27T08:53:24.898Z,99748.66
2022-09-27T08:55:57.051Z,99741.06
2022-09-27T08:58:31.296Z,99747.22
2022-09-27T09:01:04.341Z,99738.84
2022-09-27T09:03:45.069Z,99740.31
2022-09-27T09:06:21.004Z,99740.84
2022-09-27T09:09:05.251Z,99719.94
2022-09-27T09:12:07.802Z,99736.06
2022-09-27T09:15:04.714Z,99744.72
2022-09-27T09:17:56.153Z,99749.31
2022-09-27T09:20:53.721Z,99742.41
2022-09-27T09:23:39.323Z,99756.06
2022-09-27T09:26:15.456Z,99758.91
2022-09-27T09:29:06.203Z,99758.63
2022-09-27T09:31:43.896Z,99781.06
2022-09-27T09:34:21.899Z,99785.41
2022-09-27T09:36:57.736Z,99784.38
2022-09-27T09:39:31.715Z,99793.22
2022-09-27T09:42:12.665Z,99775.91
2022-09-27T09:44:49.177Z,99783.53
2022-09-27T09:47:29.576Z,99777.34
2022-09-27T09:50:02.766Z,99786.00
2022-09-27T09:52:41.230Z,99796.06
2022-09-27T09:55:21.573Z,99792.25
2022-09-27T09:58:08.187Z,99794.47
2022-09-27T10:00:45.636Z,99783.91
2022-09-27T10:03:13.999Z,99788.22
2022-09-27T10:05:45.560Z,99782.81
2022-09-27T10:08:22.083Z,99777.78
2022-09-27T10:10:58.555Z,99776.44
2022-09-27T10:13:37.921Z,99768.94
2022-09-27T10:16:11.555Z,99775.38
2022-09-27T10:18:47.624Z,99768.88
2022-09-27T10:21:23.843Z,99774.63
2022-09-27T10:24:16.603Z,99774.94
2022-09-27T10:27:15.211Z,99764.06
2022-09-27T10:29:44.939Z,99769.19
2022-09-27T10:32:27.181Z,99768.78
2022-09-27T10:35:35.326Z,99751.59
2022-09-27T10:38:24.943Z,99729.69
2022-09-27T10:41:16.704Z,99746.66
2022-09-27T10:43:45.332Z,99748.31
2022-09-27T10:46:29.780Z,99747.34
2022-09-27T10:49:19.616Z,99751.91
2022-09-27T10:51:54.118Z,99755.97
2022-09-27T10:54:27.680Z,99748.97
2022-09-27T10:57:04.643Z,99745.94
2022-09-27T10:59:37.272Z,99755.06
2022-09-27T11:02:07.928Z,99759.94
2022-09-27T11:04:40.400Z,99755.00
2022-09-27T11:07:20.326Z,99744.84
2022-09-27T11:10:03.849Z,99755.09
2022-09-27T11:12:36.711Z,99747.88
2022-09-27T11:15:08.719Z,99705.38
2022-09-27T11:17:53.136Z,99744.03
2022-09-27T11:20:33.692Z,99738.53
2022-09-27T11:23:40.338Z,99732.84
2022-09-27T11:26:29.913Z,99736.34
2022-09-27T11:29:12.892Z,99728.97
2022-09-27T11:32:20.354Z,99728.19
2022-09-27T11:35:21.728Z,99732.94
2022-09-27T11:38:04.164Z,99678.34
2022-09-27T11:41:03.255Z,99723.75
2022-09-27T11:43:52.494Z,99714.03
2022-09-27T11:46:38.685Z,99711.56
2022-09-27T11:49:47.685Z,99719.59
2022-09-27T11:52:46.550Z,99721.63
2022-09-27T11:55:31.268Z,99721.69
2022-09-27T11:58:06.224Z,99694.81
2022-09-27T12:00:53.370Z,99712.94
2022-09-27T12:04:18.234Z,99715.06
2022-09-27T12:06:56.201Z,99718.97
2022-09-27T12:09:31.699Z,99712.59
2022-09-27T12:12:06.146Z,99692.19
2022-09-27T12:14:38.789Z,99704.84
2022-09-27T12:17:13.474Z,99708.81
2022-09-27T12:19:51.648Z,99702.47
2022-09-27T12:22:53.885Z,99711.91
2022-09-27T12:25:21.203Z,99703.72
2022-09-27T12:28:24.613Z,99695.78
2022-09-27T12:31:27.439Z,99708.44
2022-09-27T12:34:01.802Z,99693.06
2022-09-27T12:36:38.458Z,99699.03
2022-09-27T12:39:18.790Z,99700.63
2022-09-27T12:42:01.912Z,99697.09
2022-09-27T12:44:45.916Z,99696.69
2022-09-27T12:47:53.916Z,99689.28
2022-09-27T12:50:31.602Z,99682.56
2022-09-27T12:53:06.586Z,99671.19
2022-09-27T12:56:09.309Z,99683.22
2022-09-27T12:59:07.559Z,99684.06
2022-09-27T13:01:56.202Z,99678.38
2022-09-27T13:04:47.764Z,99680.72
2022-09-27T13:07:36.191Z,99647.97
2022-09-27T13:10:34.144Z,99671.06
2022-09-27T13:13:12.954Z,99682.81
2022-09-27T13:15:46.425Z,99670.53
2022-09-27T13:18:48.833Z,99669.25
2022-09-27T13:22:01.671Z,99666.97
2022-09-27T13:24:48.784Z,99672.28
2022-09-27T13:27:45.066Z,99671.69
2022-09-27T13:30:47.419Z,99659.09
2022-09-27T13:33:50.332Z,99658.56
2022-09-27T13:36:34.213Z,99647.44
2022-09-27T13:39:23.138Z,99659.63
2022-09-27T13:42:37.321Z,99665.50
2022-09-27T13:45:28.894Z,99665.94
2022-09-27T13:48:00.398Z,99661.28
2022-09-27T13:50:47.628Z,99648.41
2022-09-27T13:53:27.868Z,99646.59
2022-09-27T13:55:59.217Z,99642.88
2022-09-27T13:58:51.347Z,99638.06
2022-09-27T14:01:43.848Z,99567.59
2022-09-27T14:04:19.776Z,99642.66
2022-09-27T14:06:52.454Z,99642.72
2022-09-27T14:09:26.653Z,99635.03
2022-09-27T14:12:12.359Z,99634.50
2022-09-27T14:14:43.873Z,99630.69
2022-09-27T14:17:12.780Z,99625.09
2022-09-27T14:19:44.945Z,99631.63
2022-09-27T14:22:15.723Z,99637.88
2022-09-27T14:24:56.891Z,99648.00
2022-09-27T14:27:39.276Z,99650.88
2022-09-27T14:30:27.749Z,99635.88
2022-09-27T14:33:05.350Z,99619.63
2022-09-27T14:36:08.152Z,99611.75
2022-09-27T14:38:38.994Z,99619.31
2022-09-27T14:41:17.696Z,99608.31
2022-09-27T14:43:50.563Z,99622.28
2022-09-27T14:46:28.207Z,99624.22
2022-09-27T14:48:57.291Z,99629.09
2022-09-27T14:51:31.217Z,99626.38
2022-09-27T14:54:04.314Z,99625.25
2022-09-27T14:56:37.258Z,99629.50
2022-09-27T14:59:17.818Z,99625.97
2022-09-27T15:01:51.417Z,99623.22
2022-09-27T15:04:21.770Z,99629.28
2022-09-27T15:06:50.674Z,99610.69
2022-09-27T15:09:19.633Z,99614.06
2022-09-27T15:11:54.959Z,99616.63
2022-09-27T15:14:26.016Z,99615.69
2022-09-27T15:16:56.887Z,99606.63
2022-09-27T15:19:29.001Z,99610.22
2022-09-27T15:21:58.285Z,99534.94
2022-09-27T15:24:41.027Z,99583.69
2022-09-27T15:27:18.092Z,99606.44
2022-09-27T15:29:52.299Z,99599.13
2022-09-27T15:32:23.902Z,99598.34
2022-09-27T15:34:52.660Z,99588.84
2022-09-27T15:37:29.747Z,99584.88
2022-09-27T15:40:10.115Z,99588.47
2022-09-27T15:42:56.306Z,99595.50
2022-09-27T15:45:31.344Z,99583.16
2022-09-27T15:48:09.273Z,99576.22
2022-09-27T15:50:41.088Z,99576.75
2022-09-27T15:53:10.817Z,99580.09
2022-09-27T15:55:43.411Z,99567.94
2022-09-27T15:58:16.935Z,99564.81
2022-09-27T16:00:57.908Z,99571.34
2022-09-27T16:03:27.890Z,99532.97
2022-09-27T16:05:58.044Z,99564.88
2022-09-27T16:08:27.410Z,99562.81
2022-09-27T16:10:57.880Z,99564.56
2022-09-27T16:13:31.842Z,99566.84
2022-09-27T16:16:04.202Z,99568.03
2022-09-27T16:18:32.900Z,99556.97
2022-09-27T16:21:01.452Z,99558.34
2022-09-27T16:23:29.798Z,99555.81
2022-09-27T16:25:58.119Z,99563.53
2022-09-27T16:28:26.522Z,99553.09
2022-09-27T16:30:54.809Z,99552.56
2022-09-27T16:33:24.807Z,99554.75
2022-09-27T16:35:53.018Z,99553.81
2022-09-27T16:38:21.365Z,99551.78
2022-09-27T16:40:49.645Z,99550.91
2022-09-27T16:43:18.631Z,99556.75
2022-09-27T16:45:46.937Z,99547.91
2022-09-27T16:48:15.317Z,99553.28
2022-09-27T16:51:02.267Z,99549.38
2022-09-27T16:53:31.222Z,99544.38
2022-09-27T16:56:00.670Z,99544.38
2022-09-27T16:58:30.819Z,99532.13
2022-09-27T17:01:00.068Z,99529.38
2022-09-27T17:03:28.637Z,99550.91
2022-09-27T17:06:02.624Z,99545.53
2022-09-27T17:08:30.933Z,99531.34
2022-09-27T17:11:00.218Z,99541.81
2022-09-27T17:13:28.774Z,99518.03
2022-09-27T17:15:57.118Z,99518.06
2022-09-27T17:18:25.591Z,99518.00
2022-09-27T17:20:53.988Z,99515.28
2022-09-27T17:23:23.600Z,99524.44
2022-09-27T17:25:52.191Z,99526.78
2022-09-27T17:28:20.505Z,99541.78
2022-09-27T17:30:48.850Z,99545.41
2022-09-27T17:33:17.115Z,99551.59
2022-09-27T17:35:47.857Z,99548.09
2022-09-27T17:38:16.114Z,99546.56
2022-09-27T17:40:46.134Z,99545.81
2022-09-27T17:43:15.767Z,99537.56
2022-09-27T17:45:44.094Z,99528.94
2022-09-27T17:48:29.721Z,99524.72
2022-09-27T17:50:58.249Z,99533.81
2022-09-27T17:53:26.577Z,99553.88
2022-09-27T17:56:02.461Z,99574.16
2022-09-27T17:58:31.077Z,99572.97
2022-09-27T18:01:04.343Z,99566.63
2022-09-27T18:03:32.831Z,99538.28
2022-09-27T18:06:06.070Z,99582.47
2022-09-27T18:08:34.452Z,99579.00
2022-09-27T18:11:09.245Z,99574.66
2022-09-27T18:13:40.565Z,99570.16
2022-09-27T18:16:11.297Z,99557.00
2022-09-27T18:18:40.957Z,99565.78
2022-09-27T18:21:11.597Z,99548.25
2022-09-27T18:23:40.741Z,99554.63
2022-09-27T18:26:11.440Z,99545.38
2022-09-27T18:28:40.764Z,99537.63
2022-09-27T18:31:11.484Z,99536.59
2022-09-27T18:33:40.229Z,99542.63
2022-09-27T18:36:13.178Z,99540.53
2022-09-27T18:38:41.970Z,99538.50
2022-09-27T18:41:14.168Z,99537.06
2022-09-27T18:43:44.225Z,99534.81
2022-09-27T18:46:34.933Z,99529.03
2022-09-27T18:49:05.092Z,99537.13
2022-09-27T18:51:36.194Z,99528.13
2022-09-27T18:54:08.183Z,99528.78
2022-09-27T18:56:39.542Z,99528.63
2022-09-27T18:59:10.201Z,99514.59
2022-09-27T19:01:40.359Z,99521.69
2022-09-27T19:04:09.823Z,99517.44
2022-09-27T19:06:39.417Z,99517.53
2022-09-27T19:09:10.914Z,99515.84
2022-09-27T19:11:40.608Z,99514.94
2022-09-27T19:14:08.883Z,99511.25
2022-09-27T19:16:37.245Z,99514.84
2022-09-27T19:19:05.497Z,99528.22
2022-09-27T19:21:33.801Z,99511.19
2022-09-27T19:24:02.682Z,99543.81
2022-09-27T19:26:31.061Z,99449.81
2022-09-27T19:29:02.276Z,99523.72
2022-09-27T19:31:34.058Z,99513.47
2022-09-27T19:34:02.471Z,99453.56
2022-09-27T19:36:30.903Z,99537.69
2022-09-27T19:39:00.031Z,99542.88
2022-09-27T19:41:28.634Z,99543.63
2022-09-27T19:44:00.209Z,99547.00
2022-09-27T19:46:28.584Z,99553.75
2022-09-27T19:48:56.988Z,99558.31
2022-09-27T19:51:28.152Z,99551.97
2022-09-27T19:53:56.895Z,99545.03
2022-09-27T19:56:26.129Z,99540.53
2022-09-27T19:58:54.575Z,99558.59
2022-09-27T20:01:26.116Z,99571.59
2022-09-27T20:03:56.811Z,99585.63
2022-09-27T20:06:25.382Z,99587.53
2022-09-27T20:08:53.766Z,99587.00
2022-09-27T20:11:23.927Z,99582.28
2022-09-27T20:13:54.004Z,99582.00
2022-09-27T20:16:25.390Z,99543.06
2022-09-27T20:18:56.145Z,99567.72
2022-09-27T20:21:27.345Z,99540.97
2022-09-27T20:23:57.954Z,99560.91
2022-09-27T20:26:29.352Z,99573.34
2022-09-27T20:28:59.637Z,99571.59
2022-09-27T20:31:32.865Z,99560.16
2022-09-27T20:34:01.490Z,99565.03
2022-09-27T20:36:32.292Z,99564.56
2022-09-27T20:39:03.543Z,99560.88
2022-09-27T20:41:34.415Z,99550.88
2022-09-27T20:44:04.151Z,99561.16
2022-09-27T20:46:35.043Z,99544.56
2022-09-27T20:49:06.980Z,99550.50
2022-09-27T20:51:38.798Z,99544.38
2022-09-27T20:54:09.359Z,99539.47
2022-09-27T20:56:41.673Z,99543.94
2022-09-27T20:59:17.616Z,99549.25
2022-09-27T21:01:49.363Z,99509.09
2022-09-27T21:04:19.695Z,99541.09
2022-09-27T21:06:48.245Z,99543.53
2022-09-27T21:09:18.915Z,99537.09
2022-09-27T21:11:48.389Z,99504.91
2022-09-27T21:14:16.808Z,99536.94
2022-09-27T21:16:45.212Z,99523.94
2022-09-27T21:19:15.436Z,99509.03
2022-09-27T21:21:43.922Z,99518.03
2022-09-27T21:24:12.811Z,99505.78
2022-09-27T21:26:41.084Z,99510.56
2022-09-27T21:29:11.629Z,99505.03
2022-09-27T21:31:40.082Z,99494.06
2022-09-27T21:34:08.871Z,99499.69
2022-09-27T21:36:40.298Z,99420.03
2022-09-27T21:39:10.520Z,99490.38
2022-09-27T21:41:39.838Z,99496.72
2022-09-27T21:44:08.768Z,99485.13
2022-09-27T21:46:41.590Z,99489.34
2022-09-27T21:49:11.035Z,99487.47
2022-09-27T21:51:42.240Z,99498.69
2022-09-27T21:54:15.281Z,99497.81
2022-09-27T21:56:44.908Z,99498.88
2022-09-27T21:59:16.047Z,99503.47
2022-09-27T22:01:46.028Z,99498.38
2022-09-27T22:04:14.586Z,99499.59
2022-09-27T22:06:44.489Z,99504.78
2022-09-27T22:09:17.103Z,99513.94
2022-09-27T22:11:47.352Z,99521.75
2022-09-27T22:14:16.647Z,99543.94
2022-09-27T22:16:44.921Z,99549.44
2022-09-27T22:19:15.312Z,99518.44
2022-09-27T22:21:45.464Z,99532.72
2022-09-27T22:24:15.575Z,99531.59
2022-09-27T22:26:49.057Z,99510.91
2022-09-27T22:29:18.053Z,99531.69
2022-09-27T22:31:46.696Z,99531.59
2022-09-27T22:34:18.794Z,99547.22
2022-09-27T22:36:48.628Z,99542.75
2022-09-27T22:39:16.994Z,99542.88
2022-09-27T22:41:45.412Z,99524.41
2022-09-27T22:44:13.770Z,99522.06
2022-09-27T22:46:42.497Z,99521.97
2022-09-27T22:49:10.863Z,99520.34
2022-09-27T22:51:39.105Z,99509.13
2022-09-27T22:54:08.954Z,99512.66
2022-09-27T22:56:37.245Z,99512.31
2022-09-27T22:59:05.579Z,99504.94
2022-09-27T23:01:36.719Z,99499.06
2022-09-27T23:04:05.012Z,99499.38
2022-09-27T23:06:33.429Z,99497.56
2022-09-27T23:09:02.690Z,99486.97
2022-09-27T23:11:33.126Z,99490.41
2022-09-27T23:14:01.416Z,99488.66
2022-09-27T23:16:29.746Z,99481.13
2022-09-27T23:18:58.478Z,99479.94
2022-09-27T23:21:28.652Z,99483.28
2022-09-27T23:23:59.627Z,99476.91
2022-09-27T23:26:31.018Z,99452.53
2022-09-27T23:29:00.951Z,99475.06
2022-09-27T23:31:31.387Z,99449.97
2022-09-27T23:34:04.133Z,99475.19
2022-09-27T23:36:32.476Z,99475.19
2022-09-27T23:39:01.705Z,99400.69
2022-09-27T23:41:31.373Z,99471.84
2022-09-27T23:43:59.547Z,99476.25
2022-09-27T23:46:28.947Z,99477.09
2022-09-27T23:48:58.872Z,99477.22
2022-09-27T23:51:27.357Z,99479.78
2022-09-27T23:53:57.087Z,99480.53
2022-09-27T23:56:25.527Z,99472.69
2022-09-27T23:58:55.122Z,99478.09
